createdAt,value
2017-09-07T00:00:37.021Z,78.38
2017-09-07T00:01:17.635Z,77.99
2017-09-07T00:01:58.242Z,77.76
2017-09-07T00:02:38.809Z,78.47
2017-09-07T00:03:19.405Z,78.63
2017-09-07T00:04:00.009Z,78.24
2017-09-07T00:04:40.591Z,78.24
2017-09-07T00:05:21.197Z,78.34
2017-09-07T00:06:01.780Z,78.53
2017-09-07T00:06:42.410Z,78.53
2017-09-07T00:07:22.984Z,78.66
2017-09-07T00:08:03.570Z,78.14
2017-09-07T00:08:44.160Z,78.53
2017-09-07T00:09:24.749Z,78.38
2017-09-07T00:10:05.370Z,78.19
2017-09-07T00:10:45.972Z,77.67
2017-09-07T00:11:26.564Z,78.24
2017-09-07T00:12:07.160Z,78.34
2017-09-07T00:12:47.779Z,78.43
2017-09-07T00:13:28.363Z,78.24
2017-09-07T00:14:08.988Z,78.14
2017-09-07T00:14:49.582Z,78.09
2017-09-07T00:15:30.177Z,78.14
2017-09-07T00:16:10.795Z,78.63
2017-09-07T00:16:51.384Z,77.67
2017-09-07T00:17:32.006Z,78.05
2017-09-07T00:18:12.549Z,78.24
2017-09-07T00:18:53.130Z,78.24
2017-09-07T00:19:33.691Z,78.53
2017-09-07T00:20:14.292Z,78.24
2017-09-07T00:20:54.890Z,78.63
2017-09-07T00:21:35.481Z,78.81
2017-09-07T00:22:16.089Z,78.53
2017-09-07T00:22:56.649Z,78.72
2017-09-07T00:23:37.237Z,78.72
2017-09-07T00:24:17.835Z,79.1
2017-09-07T00:24:58.394Z,79.1
2017-09-07T00:25:38.991Z,78.72
2017-09-07T00:26:19.572Z,78.43
2017-09-07T00:27:00.146Z,78.24
2017-09-07T00:27:40.723Z,78.24
2017-09-07T00:28:21.346Z,78.43
2017-09-07T00:29:01.951Z,78.66
2017-09-07T00:29:42.524Z,78.34
2017-09-07T00:30:23.101Z,78.63
2017-09-07T00:31:03.665Z,78.53
2017-09-07T00:31:44.256Z,79
2017-09-07T00:32:24.845Z,79.1
2017-09-07T00:33:05.452Z,79.1
2017-09-07T00:33:46.036Z,78.81
2017-09-07T00:34:26.628Z,79.2
2017-09-07T00:35:07.204Z,79.2
2017-09-07T00:35:47.818Z,79.1
2017-09-07T00:36:28.389Z,78.81
2017-09-07T00:37:08.994Z,79.1
2017-09-07T00:37:49.584Z,78.81
2017-09-07T00:38:30.143Z,79.29
2017-09-07T00:39:10.720Z,78.72
2017-09-07T00:39:51.282Z,79.1
2017-09-07T00:40:31.936Z,78.72
2017-09-07T00:41:12.521Z,79.1
2017-09-07T00:41:53.096Z,78.72
2017-09-07T00:42:33.676Z,78.91
2017-09-07T00:43:14.267Z,78.63
2017-09-07T00:43:54.860Z,79.29
2017-09-07T00:44:35.436Z,79.1
2017-09-07T00:45:16.033Z,78.34
2017-09-07T00:45:56.625Z,78.53
2017-09-07T00:46:37.245Z,78.53
2017-09-07T00:47:17.829Z,78.53
2017-09-07T00:47:58.417Z,78.53
2017-09-07T00:48:39.007Z,79.1
2017-09-07T00:49:19.589Z,78.91
2017-09-07T00:50:00.198Z,78.91
2017-09-07T00:50:40.786Z,78.53
2017-09-07T00:51:21.365Z,79.2
2017-09-07T00:52:01.936Z,78.91
2017-09-07T00:52:42.520Z,78.91
2017-09-07T00:53:23.089Z,79.2
2017-09-07T00:54:03.681Z,79.39
2017-09-07T00:54:44.291Z,79.68
2017-09-07T00:55:24.868Z,79.49
2017-09-07T00:56:05.457Z,79.58
2017-09-07T00:56:46.061Z,79.29
2017-09-07T00:57:26.669Z,79.58
2017-09-07T00:58:07.234Z,79.29
2017-09-07T00:58:47.845Z,79.29
2017-09-07T00:59:28.412Z,79.58
2017-09-07T01:00:09.002Z,79.39
2017-09-07T01:00:49.594Z,78.91
2017-09-07T01:01:30.218Z,79.68
2017-09-07T01:02:10.816Z,79.87
2017-09-07T01:02:51.434Z,79.77
2017-09-07T01:03:32.033Z,79.39
2017-09-07T01:04:12.607Z,79.58
2017-09-07T01:04:53.230Z,79.39
2017-09-07T01:05:33.829Z,79.29
2017-09-07T01:06:14.419Z,79.49
2017-09-07T01:06:54.994Z,79.49
2017-09-07T01:07:35.575Z,79.2
2017-09-07T01:08:16.156Z,79.39
2017-09-07T01:08:56.735Z,79.68
2017-09-07T01:09:37.334Z,79.49
2017-09-07T01:10:17.912Z,79.77
2017-09-07T01:10:58.550Z,79.29
2017-09-07T01:11:39.124Z,79.29
2017-09-07T01:12:19.683Z,79.39
2017-09-07T01:13:00.265Z,79.39
2017-09-07T01:13:40.804Z,79.39
2017-09-07T01:14:21.369Z,79.49
2017-09-07T01:15:02.001Z,79.35
2017-09-07T01:15:42.578Z,79.58
2017-09-07T01:16:23.163Z,79.1
2017-09-07T01:17:03.746Z,79.2
2017-09-07T01:17:44.356Z,79.39
2017-09-07T01:18:24.949Z,79.58
2017-09-07T01:19:05.503Z,79.25
2017-09-07T01:19:46.146Z,79.68
2017-09-07T01:20:26.738Z,79.29
2017-09-07T01:21:07.319Z,79.58
2017-09-07T01:21:47.902Z,78.81
2017-09-07T01:22:28.484Z,79.29
2017-09-07T01:23:09.043Z,79.54
2017-09-07T01:23:49.605Z,79.49
2017-09-07T01:24:30.178Z,79.25
2017-09-07T01:25:10.752Z,79.54
2017-09-07T01:25:51.342Z,79.54
2017-09-07T01:26:31.908Z,79.54
2017-09-07T01:27:12.479Z,79.29
2017-09-07T01:27:53.051Z,79.29
2017-09-07T01:28:33.621Z,79.39
2017-09-07T01:29:14.206Z,79.64
2017-09-07T01:29:54.784Z,79.35
2017-09-07T01:30:35.357Z,79.25
2017-09-07T01:31:15.927Z,79.54
2017-09-07T01:31:56.508Z,79.06
2017-09-07T01:32:37.095Z,79.06
2017-09-07T01:33:17.653Z,79.54
2017-09-07T01:33:58.253Z,79.44
2017-09-07T01:34:38.825Z,79.64
2017-09-07T01:35:19.435Z,79.16
2017-09-07T01:36:00.009Z,79.54
2017-09-07T01:36:40.637Z,79.35
2017-09-07T01:37:21.211Z,79.54
2017-09-07T01:38:01.795Z,79.44
2017-09-07T01:38:42.349Z,79.35
2017-09-07T01:39:22.951Z,79.35
2017-09-07T01:40:03.516Z,79.44
2017-09-07T01:40:44.104Z,79.54
2017-09-07T01:41:24.656Z,79.44
2017-09-07T01:42:05.250Z,79.54
2017-09-07T01:42:45.840Z,79.54
2017-09-07T01:43:26.421Z,79.16
2017-09-07T01:44:06.977Z,79.54
2017-09-07T01:44:47.587Z,79.44
2017-09-07T01:45:28.197Z,80.02
2017-09-07T01:46:08.785Z,79.54
2017-09-07T01:46:49.363Z,79.35
2017-09-07T01:47:29.941Z,79.64
2017-09-07T01:48:10.505Z,80.21
2017-09-07T01:48:51.086Z,80.11
2017-09-07T01:49:31.660Z,80.21
2017-09-07T01:50:12.269Z,79.44
2017-09-07T01:50:52.835Z,79.83
2017-09-07T01:51:33.392Z,80.21
2017-09-07T01:52:13.975Z,79.83
2017-09-07T01:52:54.548Z,79.93
2017-09-07T01:53:35.101Z,79.93
2017-09-07T01:54:15.676Z,79.93
2017-09-07T01:54:56.280Z,80.11
2017-09-07T01:55:36.823Z,80.3
2017-09-07T01:56:17.392Z,80.21
2017-09-07T01:56:57.984Z,80.11
2017-09-07T01:57:38.550Z,80.21
2017-09-07T01:58:19.111Z,79.83
2017-09-07T01:58:59.720Z,80.11
2017-09-07T01:59:40.313Z,80.21
2017-09-07T02:00:20.856Z,80.69
2017-09-07T02:01:01.417Z,80.5
2017-09-07T02:01:41.972Z,80.69
2017-09-07T02:02:22.538Z,80.69
2017-09-07T02:03:03.159Z,81.26
2017-09-07T02:03:43.736Z,81.07
2017-09-07T02:04:24.300Z,80.69
2017-09-07T02:05:04.870Z,80.79
2017-09-07T02:05:45.443Z,80.98
2017-09-07T02:06:26.036Z,81.36
2017-09-07T02:07:06.616Z,80.98
2017-09-07T02:07:47.204Z,81.16
2017-09-07T02:08:27.766Z,80.69
2017-09-07T02:09:08.367Z,80.88
2017-09-07T02:09:48.938Z,81.45
2017-09-07T02:10:29.494Z,80.98
2017-09-07T02:11:10.079Z,81.45
2017-09-07T02:11:50.690Z,81.45
2017-09-07T02:12:31.223Z,81.36
2017-09-07T02:13:11.887Z,81.55
2017-09-07T02:13:52.502Z,81.45
2017-09-07T02:14:33.059Z,81.45
2017-09-07T02:15:13.626Z,81.65
2017-09-07T02:15:54.234Z,81.65
2017-09-07T02:16:34.815Z,81.26
2017-09-07T02:17:15.372Z,81.36
2017-09-07T02:17:55.957Z,81.55
2017-09-07T02:18:36.505Z,81.55
2017-09-07T02:19:17.102Z,81.74
2017-09-07T02:19:57.680Z,81.55
2017-09-07T02:20:38.262Z,81.07
2017-09-07T02:21:18.824Z,81.55
2017-09-07T02:21:59.407Z,81.26
2017-09-07T02:22:39.987Z,81.55
2017-09-07T02:23:21.528Z,81.74
2017-09-07T02:24:02.294Z,81.65
2017-09-07T02:24:42.858Z,81.65
2017-09-07T02:25:23.451Z,81.45
2017-09-07T02:26:04.039Z,81.65
2017-09-07T02:26:44.615Z,81.84
2017-09-07T02:27:25.192Z,81.84
2017-09-07T02:28:05.774Z,81.45
2017-09-07T02:28:46.338Z,81.45
2017-09-07T02:29:26.924Z,81.45
2017-09-07T02:30:07.487Z,81.65
2017-09-07T02:30:48.098Z,81.36
2017-09-07T02:31:28.674Z,81.74
2017-09-07T02:32:09.236Z,82.22
2017-09-07T02:32:49.819Z,82.03
2017-09-07T02:33:30.385Z,82.41
2017-09-07T02:34:10.972Z,82.22
2017-09-07T02:34:51.550Z,82.12
2017-09-07T02:35:32.132Z,82.08
2017-09-07T02:36:12.708Z,81.84
2017-09-07T02:36:53.293Z,82.08
2017-09-07T02:37:33.850Z,82.37
2017-09-07T02:38:14.419Z,81.79
2017-09-07T02:38:55.010Z,82.46
2017-09-07T02:39:35.587Z,82.75
2017-09-07T02:40:16.139Z,82.65
2017-09-07T02:40:56.715Z,82.94
2017-09-07T02:41:37.287Z,83.13
2017-09-07T02:42:17.881Z,82.94
2017-09-07T02:42:58.435Z,82.75
2017-09-07T02:43:38.988Z,82.46
2017-09-07T02:44:19.558Z,82.75
2017-09-07T02:45:00.134Z,82.89
2017-09-07T02:45:40.715Z,82.56
2017-09-07T02:46:21.321Z,82.56
2017-09-07T02:47:01.961Z,82.75
2017-09-07T02:47:42.556Z,82.94
2017-09-07T02:48:23.128Z,82.65
2017-09-07T02:49:03.681Z,82.75
2017-09-07T02:49:44.268Z,82.84
2017-09-07T02:50:24.846Z,82.46
2017-09-07T02:51:05.410Z,82.46
2017-09-07T02:51:45.995Z,82.28
2017-09-07T02:52:26.572Z,82.94
2017-09-07T02:53:07.138Z,82.28
2017-09-07T02:53:47.762Z,82.94
2017-09-07T02:54:28.337Z,82.56
2017-09-07T02:55:08.966Z,82.46
2017-09-07T02:55:49.531Z,82.46
2017-09-07T02:56:30.102Z,82.28
2017-09-07T02:57:10.654Z,83.13
2017-09-07T02:57:51.234Z,82.84
2017-09-07T02:58:31.797Z,82.46
2017-09-07T02:59:12.386Z,82.94
2017-09-07T02:59:52.945Z,82.65
2017-09-07T03:00:33.528Z,82.56
2017-09-07T03:01:14.111Z,82.75
2017-09-07T03:01:54.684Z,82.65
2017-09-07T03:02:35.250Z,82.37
2017-09-07T03:03:15.819Z,82.37
2017-09-07T03:03:56.392Z,82.65
2017-09-07T03:04:36.961Z,82.65
2017-09-07T03:05:17.531Z,82.7
2017-09-07T03:05:58.095Z,82.56
2017-09-07T03:06:38.653Z,82.65
2017-09-07T03:07:19.221Z,82.46
2017-09-07T03:07:59.801Z,82.65
2017-09-07T03:08:40.383Z,82.46
2017-09-07T03:09:20.947Z,82.75
2017-09-07T03:10:01.521Z,82.56
2017-09-07T03:10:42.106Z,82.46
2017-09-07T03:11:22.672Z,82.65
2017-09-07T03:12:03.237Z,83.04
2017-09-07T03:12:43.806Z,83.04
2017-09-07T03:13:24.405Z,82.94
2017-09-07T03:14:04.948Z,82.65
2017-09-07T03:14:45.540Z,82.94
2017-09-07T03:15:26.117Z,82.84
2017-09-07T03:16:06.686Z,83.33
2017-09-07T03:16:47.251Z,82.84
2017-09-07T03:17:27.813Z,82.84
2017-09-07T03:18:08.394Z,82.56
2017-09-07T03:18:48.973Z,82.65
2017-09-07T03:19:29.542Z,82.75
2017-09-07T03:20:10.111Z,82.37
2017-09-07T03:20:50.699Z,82.84
2017-09-07T03:21:31.249Z,82.75
2017-09-07T03:22:11.804Z,82.56
2017-09-07T03:22:52.440Z,83.13
2017-09-07T03:23:32.995Z,82.84
2017-09-07T03:24:13.644Z,83.51
2017-09-07T03:24:54.242Z,83.04
2017-09-07T03:25:34.841Z,82.94
2017-09-07T03:26:15.412Z,83.04
2017-09-07T03:26:56.005Z,83.04
2017-09-07T03:27:36.572Z,83.42
2017-09-07T03:28:17.169Z,82.56
2017-09-07T03:28:57.741Z,82.46
2017-09-07T03:29:38.318Z,82.84
2017-09-07T03:30:18.882Z,83.33
2017-09-07T03:30:59.448Z,83.42
2017-09-07T03:31:40.038Z,83.42
2017-09-07T03:32:20.610Z,83.51
2017-09-07T03:33:01.171Z,82.94
2017-09-07T03:33:41.737Z,83.42
2017-09-07T03:34:22.307Z,82.94
2017-09-07T03:35:02.863Z,83.42
2017-09-07T03:35:43.440Z,83.23
2017-09-07T03:36:24.037Z,83.42
2017-09-07T03:37:04.598Z,82.46
2017-09-07T03:37:45.177Z,82.94
2017-09-07T03:38:25.732Z,83.61
2017-09-07T03:39:06.311Z,83.42
2017-09-07T03:39:46.891Z,83.42
2017-09-07T03:40:27.466Z,83.13
2017-09-07T03:41:08.047Z,82.46
2017-09-07T03:41:48.623Z,83.33
2017-09-07T03:42:29.204Z,82.94
2017-09-07T03:43:09.762Z,83.13
2017-09-07T03:43:50.316Z,83.23
2017-09-07T03:44:30.936Z,83.33
2017-09-07T03:45:11.531Z,83.33
2017-09-07T03:45:52.177Z,83.42
2017-09-07T03:46:32.781Z,83.23
2017-09-07T03:47:13.353Z,83.23
2017-09-07T03:47:53.965Z,83.13
2017-09-07T03:48:34.525Z,83.51
2017-09-07T03:49:15.093Z,83.33
2017-09-07T03:49:55.672Z,83.04
2017-09-07T03:50:36.278Z,83.33
2017-09-07T03:51:16.825Z,83.33
2017-09-07T03:51:57.421Z,83.33
2017-09-07T03:52:37.991Z,83.42
2017-09-07T03:53:18.560Z,82.94
2017-09-07T03:53:59.148Z,83.33
2017-09-07T03:54:39.727Z,82.94
2017-09-07T03:55:20.288Z,83.13
2017-09-07T03:56:00.872Z,83.13
2017-09-07T03:56:41.446Z,83.9
2017-09-07T03:57:22.026Z,83.42
2017-09-07T03:58:02.585Z,83.51
2017-09-07T03:58:43.147Z,83.42
2017-09-07T03:59:23.713Z,83.13
2017-09-07T04:00:04.302Z,82.94
2017-09-07T04:00:44.866Z,83.33
2017-09-07T04:01:25.440Z,83.13
2017-09-07T04:02:06.000Z,83.42
2017-09-07T04:02:46.552Z,82.84
2017-09-07T04:03:27.133Z,82.94
2017-09-07T04:04:07.717Z,83.42
2017-09-07T04:04:48.300Z,82.94
2017-09-07T04:05:28.869Z,83.42
2017-09-07T04:06:09.427Z,82.75
2017-09-07T04:06:49.989Z,83.33
2017-09-07T04:07:30.569Z,83.04
2017-09-07T04:08:11.146Z,83.33
2017-09-07T04:08:51.716Z,83.13
2017-09-07T04:09:32.276Z,83.33
2017-09-07T04:10:12.844Z,82.75
2017-09-07T04:10:53.426Z,82.94
2017-09-07T04:11:34.011Z,82.84
2017-09-07T04:12:14.597Z,83.33
2017-09-07T04:12:55.156Z,82.84
2017-09-07T04:13:35.761Z,83.33
2017-09-07T04:14:16.314Z,83.04
2017-09-07T04:14:56.906Z,83.13
2017-09-07T04:15:37.484Z,82.94
2017-09-07T04:16:18.038Z,82.75
2017-09-07T04:16:58.612Z,83.04
2017-09-07T04:17:39.202Z,82.94
2017-09-07T04:18:19.786Z,83.33
2017-09-07T04:19:00.365Z,83.33
2017-09-07T04:19:40.925Z,83.23
2017-09-07T04:20:21.527Z,83.13
2017-09-07T04:21:02.088Z,83.33
2017-09-07T04:21:42.650Z,83.33
2017-09-07T04:22:23.220Z,83.42
2017-09-07T04:23:03.810Z,83.13
2017-09-07T04:23:44.378Z,83.33
2017-09-07T04:24:24.936Z,83.13
2017-09-07T04:25:05.503Z,83.42
2017-09-07T04:25:46.075Z,83.61
2017-09-07T04:26:26.641Z,83.42
2017-09-07T04:27:07.229Z,83.33
2017-09-07T04:27:47.782Z,82.94
2017-09-07T04:28:28.400Z,83.04
2017-09-07T04:29:08.983Z,83.42
2017-09-07T04:29:49.567Z,83.8
2017-09-07T04:30:30.126Z,83.9
2017-09-07T04:31:10.710Z,83.9
2017-09-07T04:31:51.278Z,83.9
2017-09-07T04:32:31.839Z,83.8
2017-09-07T04:33:12.525Z,82.84
2017-09-07T04:33:53.135Z,83.04
2017-09-07T04:34:33.706Z,83.13
2017-09-07T04:35:14.258Z,83.42
2017-09-07T04:35:54.820Z,83.7
2017-09-07T04:36:35.395Z,82.94
2017-09-07T04:37:15.996Z,83.33
2017-09-07T04:37:56.564Z,83.42
2017-09-07T04:38:37.164Z,82.84
2017-09-07T04:39:17.778Z,82.94
2017-09-07T04:39:58.352Z,82.94
2017-09-07T04:40:38.932Z,82.94
2017-09-07T04:41:20.223Z,82.94
2017-09-07T04:42:00.809Z,82.84
2017-09-07T04:42:41.369Z,83.33
2017-09-07T04:43:21.930Z,82.75
2017-09-07T04:44:02.487Z,83.9
2017-09-07T04:44:43.047Z,83.42
2017-09-07T04:45:23.606Z,83.33
2017-09-07T04:46:04.169Z,83.23
2017-09-07T04:46:44.737Z,83.13
2017-09-07T04:47:25.312Z,82.75
2017-09-07T04:48:05.880Z,82.75
2017-09-07T04:48:46.466Z,82.75
2017-09-07T04:49:27.022Z,82.94
2017-09-07T04:50:07.588Z,83.33
2017-09-07T04:50:48.160Z,83.23
2017-09-07T04:51:28.716Z,83.04
2017-09-07T04:52:09.293Z,83.13
2017-09-07T04:52:49.877Z,82.94
2017-09-07T04:53:30.452Z,82.94
2017-09-07T04:54:11.027Z,82.94
2017-09-07T04:54:51.592Z,83.13
2017-09-07T04:55:32.159Z,82.94
2017-09-07T04:56:12.722Z,82.94
2017-09-07T04:56:53.312Z,82.75
2017-09-07T04:57:33.871Z,83.04
2017-09-07T04:58:14.448Z,83.13
2017-09-07T04:58:55.029Z,82.94
2017-09-07T04:59:35.582Z,83.13
2017-09-07T05:00:16.159Z,83.42
2017-09-07T05:00:56.744Z,83.13
2017-09-07T05:01:37.339Z,82.94
2017-09-07T05:02:17.910Z,83.33
2017-09-07T05:02:58.537Z,83.33
2017-09-07T05:03:39.105Z,83.33
2017-09-07T05:04:19.704Z,83.33
2017-09-07T05:05:00.277Z,82.94
2017-09-07T05:05:40.843Z,83.13
2017-09-07T05:06:21.433Z,83.23
2017-09-07T05:07:02.055Z,83.42
2017-09-07T05:07:42.616Z,83.04
2017-09-07T05:08:23.191Z,82.94
2017-09-07T05:09:03.763Z,83.04
2017-09-07T05:09:44.334Z,83.04
2017-09-07T05:10:24.910Z,83.61
2017-09-07T05:11:05.483Z,83.7
2017-09-07T05:11:46.076Z,83.61
2017-09-07T05:12:26.658Z,82.94
2017-09-07T05:13:07.240Z,82.75
2017-09-07T05:13:47.794Z,83.9
2017-09-07T05:14:28.409Z,83.8
2017-09-07T05:15:08.999Z,82.94
2017-09-07T05:15:49.594Z,83.51
2017-09-07T05:16:30.157Z,82.84
2017-09-07T05:17:10.739Z,82.84
2017-09-07T05:17:51.308Z,82.28
2017-09-07T05:18:31.888Z,82.56
2017-09-07T05:19:12.467Z,82.46
2017-09-07T05:19:53.043Z,82.94
2017-09-07T05:20:33.607Z,83.13
2017-09-07T05:21:14.168Z,82.94
2017-09-07T05:21:54.740Z,82.94
2017-09-07T05:22:35.309Z,82.84
2017-09-07T05:23:15.872Z,82.75
2017-09-07T05:23:56.446Z,82.65
2017-09-07T05:24:37.023Z,82.94
2017-09-07T05:25:17.588Z,82.84
2017-09-07T05:25:58.179Z,82.7
2017-09-07T05:26:38.766Z,82.75
2017-09-07T05:27:19.334Z,83.04
2017-09-07T05:27:59.885Z,82.65
2017-09-07T05:28:41.495Z,82.79
2017-09-07T05:29:21.897Z,82.28
2017-09-07T05:30:02.507Z,82.7
2017-09-07T05:30:43.061Z,82.7
2017-09-07T05:31:23.921Z,82.7
2017-09-07T05:32:04.783Z,83.37
2017-09-07T05:32:45.359Z,83.37
2017-09-07T05:33:25.933Z,82.98
2017-09-07T05:34:06.490Z,82.89
2017-09-07T05:34:47.068Z,82.79
2017-09-07T05:35:27.678Z,82.51
2017-09-07T05:36:08.239Z,82.79
2017-09-07T05:36:48.825Z,82.6
2017-09-07T05:37:29.673Z,82.79
2017-09-07T05:38:10.460Z,82.6
2017-09-07T05:38:50.980Z,82.7
2017-09-07T05:39:31.554Z,82.7
2017-09-07T05:40:12.126Z,82.98
2017-09-07T05:40:52.689Z,82.7
2017-09-07T05:41:33.271Z,82.7
2017-09-07T05:42:13.844Z,82.7
2017-09-07T05:42:54.590Z,82.41
2017-09-07T05:43:35.154Z,81.84
2017-09-07T05:44:15.744Z,82.03
2017-09-07T05:44:56.331Z,82.31
2017-09-07T05:45:36.935Z,82.41
2017-09-07T05:46:17.756Z,82.89
2017-09-07T05:46:58.326Z,82.12
2017-09-07T05:47:38.898Z,81.74
2017-09-07T05:48:19.459Z,81.16
2017-09-07T05:49:00.031Z,80.88
2017-09-07T05:49:40.597Z,81.55
2017-09-07T05:50:21.165Z,82.12
2017-09-07T05:51:01.940Z,82.12
2017-09-07T05:51:42.513Z,81.36
2017-09-07T05:52:23.069Z,81.45
2017-09-07T05:53:03.637Z,81.36
2017-09-07T05:53:44.216Z,81.65
2017-09-07T05:54:24.806Z,81.55
2017-09-07T05:55:05.355Z,81.93
2017-09-07T05:55:45.920Z,81.65
2017-09-07T05:56:26.477Z,81.55
2017-09-07T05:57:07.057Z,81.65
2017-09-07T05:57:47.671Z,82.12
2017-09-07T05:58:28.885Z,82.31
2017-09-07T05:59:09.465Z,82.12
2017-09-07T05:59:50.039Z,81.93
2017-09-07T06:00:30.723Z,81.93
2017-09-07T06:01:11.287Z,82.12
2017-09-07T06:01:51.855Z,82.41
2017-09-07T06:02:32.468Z,82.03
2017-09-07T06:03:13.068Z,82.12
2017-09-07T06:03:53.643Z,82.03
2017-09-07T06:04:34.227Z,82.41
2017-09-07T06:05:14.863Z,82.12
2017-09-07T06:05:55.436Z,81.55
2017-09-07T06:06:36.060Z,82.31
2017-09-07T06:07:16.629Z,82.03
2017-09-07T06:07:57.196Z,82.12
2017-09-07T06:08:37.762Z,82.12
2017-09-07T06:09:18.331Z,81.93
2017-09-07T06:09:58.971Z,82.41
2017-09-07T06:10:39.564Z,81.93
2017-09-07T06:11:20.150Z,82.03
2017-09-07T06:12:00.711Z,82.03
2017-09-07T06:12:41.285Z,82.03
2017-09-07T06:13:21.883Z,82.31
2017-09-07T06:14:02.443Z,82.7
2017-09-07T06:14:43.026Z,82.22
2017-09-07T06:15:23.587Z,82.41
2017-09-07T06:16:04.163Z,82.03
2017-09-07T06:16:44.726Z,81.84
2017-09-07T06:17:25.289Z,81.65
2017-09-07T06:18:05.866Z,82.31
2017-09-07T06:18:46.464Z,82.12
2017-09-07T06:19:27.020Z,82.31
2017-09-07T06:20:07.589Z,82.03
2017-09-07T06:20:48.162Z,82.03
2017-09-07T06:21:28.734Z,82.12
2017-09-07T06:22:09.294Z,82.31
2017-09-07T06:22:49.871Z,82.31
2017-09-07T06:23:30.439Z,82.12
2017-09-07T06:24:11.033Z,81.74
2017-09-07T06:24:51.614Z,81.55
2017-09-07T06:25:32.178Z,81.74
2017-09-07T06:26:12.779Z,81.36
2017-09-07T06:26:53.358Z,81.74
2017-09-07T06:27:33.996Z,81.65
2017-09-07T06:28:14.556Z,81.45
2017-09-07T06:28:55.133Z,81.45
2017-09-07T06:29:35.703Z,81.93
2017-09-07T06:30:16.288Z,81.65
2017-09-07T06:30:56.856Z,81.65
2017-09-07T06:31:37.414Z,81.26
2017-09-07T06:32:17.975Z,80.98
2017-09-07T06:32:58.559Z,81.65
2017-09-07T06:33:39.581Z,80.69
2017-09-07T06:34:20.213Z,80.88
2017-09-07T06:35:00.816Z,81.07
2017-09-07T06:35:41.393Z,81.16
2017-09-07T06:36:21.957Z,80.98
2017-09-07T06:37:02.536Z,80.79
2017-09-07T06:37:43.111Z,81.36
2017-09-07T06:38:23.699Z,81.55
2017-09-07T06:39:04.273Z,81.74
2017-09-07T06:39:44.861Z,81.55
2017-09-07T06:40:25.439Z,81.65
2017-09-07T06:41:05.996Z,80.79
2017-09-07T06:41:46.574Z,81.45
2017-09-07T06:42:27.133Z,81.45
2017-09-07T06:43:07.693Z,81.55
2017-09-07T06:43:48.278Z,80.88
2017-09-07T06:44:28.851Z,81.26
2017-09-07T06:45:09.429Z,80.88
2017-09-07T06:45:50.041Z,80.3
2017-09-07T06:46:30.621Z,80.69
2017-09-07T06:47:11.178Z,80.3
2017-09-07T06:47:51.763Z,80.88
2017-09-07T06:48:32.338Z,81.26
2017-09-07T06:49:12.914Z,80.88
2017-09-07T06:49:53.480Z,81.26
2017-09-07T06:50:34.057Z,81.16
2017-09-07T06:51:14.646Z,80.88
2017-09-07T06:51:55.201Z,80.88
2017-09-07T06:52:36.366Z,81.45
2017-09-07T06:53:16.935Z,81.26
2017-09-07T06:53:57.490Z,80.69
2017-09-07T06:54:38.085Z,81.16
2017-09-07T06:55:18.641Z,81.4
2017-09-07T06:55:59.215Z,81.11
2017-09-07T06:56:39.814Z,81.49
2017-09-07T06:57:20.346Z,81.02
2017-09-07T06:58:00.952Z,81.11
2017-09-07T06:58:41.517Z,81.3
2017-09-07T06:59:22.099Z,80.54
2017-09-07T07:00:02.659Z,80.25
2017-09-07T07:00:43.246Z,79.96
2017-09-07T07:01:23.856Z,79.87
2017-09-07T07:02:04.378Z,79.68
2017-09-07T07:02:44.998Z,79.58
2017-09-07T07:03:25.644Z,79.68
2017-09-07T07:04:06.206Z,80.06
2017-09-07T07:04:46.764Z,79.68
2017-09-07T07:05:27.344Z,79.29
2017-09-07T07:06:07.927Z,79.39
2017-09-07T07:06:48.481Z,80.16
2017-09-07T07:07:29.059Z,79.87
2017-09-07T07:08:09.640Z,80.25
2017-09-07T07:08:50.304Z,80.06
2017-09-07T07:09:30.879Z,80.63
2017-09-07T07:10:11.451Z,80.44
2017-09-07T07:10:52.122Z,80.44
2017-09-07T07:11:32.741Z,79.96
2017-09-07T07:12:13.321Z,80.06
2017-09-07T07:12:53.895Z,80.44
2017-09-07T07:13:34.498Z,79.87
2017-09-07T07:14:15.110Z,80.06
2017-09-07T07:14:55.697Z,79.87
2017-09-07T07:15:36.251Z,79.58
2017-09-07T07:16:16.823Z,80.06
2017-09-07T07:16:57.423Z,79.87
2017-09-07T07:17:37.998Z,79.77
2017-09-07T07:18:18.589Z,79.68
2017-09-07T07:18:59.186Z,79.1
2017-09-07T07:19:39.779Z,79.2
2017-09-07T07:20:20.367Z,79.68
2017-09-07T07:21:01.342Z,80.06
2017-09-07T07:21:41.913Z,80.1
2017-09-07T07:22:22.494Z,79.43
2017-09-07T07:23:03.091Z,79.14
2017-09-07T07:23:43.674Z,78.42
2017-09-07T07:24:24.386Z,77.26
2017-09-07T07:25:04.917Z,76.5
2017-09-07T07:25:45.663Z,76.4
2017-09-07T07:26:26.224Z,75.93
2017-09-07T07:27:06.788Z,76.02
2017-09-07T07:27:47.362Z,75.54
2017-09-07T07:28:27.936Z,75.35
2017-09-07T07:29:08.512Z,75.54
2017-09-07T07:29:49.090Z,75.83
2017-09-07T07:30:29.666Z,75.16
2017-09-07T07:31:10.239Z,75.07
2017-09-07T07:31:50.823Z,74.68
2017-09-07T07:32:31.398Z,75.45
2017-09-07T07:33:11.952Z,75.83
2017-09-07T07:33:52.532Z,76.21
2017-09-07T07:34:33.122Z,76.31
2017-09-07T07:35:13.933Z,76.12
2017-09-07T07:35:54.499Z,76.4
2017-09-07T07:36:35.262Z,76.69
2017-09-07T07:37:15.868Z,76.35
2017-09-07T07:37:56.465Z,75.39
2017-09-07T07:38:37.035Z,75.87
2017-09-07T07:39:17.621Z,75.48
2017-09-07T07:39:58.207Z,75.23
2017-09-07T07:40:38.800Z,74.37
2017-09-07T07:41:19.379Z,72.97
2017-09-07T07:41:59.967Z,71.72
2017-09-07T07:42:40.555Z,71.53
2017-09-07T07:43:21.205Z,71.19
2017-09-07T07:44:01.809Z,71.09
2017-09-07T07:44:42.363Z,69.59
2017-09-07T07:45:22.967Z,67.67
2017-09-07T07:46:03.561Z,67.47
2017-09-07T07:46:44.130Z,67.38
2017-09-07T07:47:24.720Z,67.96
2017-09-07T07:48:05.290Z,68.05
2017-09-07T07:48:45.887Z,66.61
2017-09-07T07:49:26.481Z,66.71
2017-09-07T07:50:07.045Z,67.06
2017-09-07T07:50:47.623Z,67.63
2017-09-07T07:51:28.349Z,67.83
2017-09-07T07:52:08.946Z,68.59
2017-09-07T07:52:49.520Z,69.74
2017-09-07T07:53:30.123Z,70.13
2017-09-07T07:54:10.697Z,70.09
2017-09-07T07:54:51.252Z,70.57
2017-09-07T07:55:31.825Z,70.86
2017-09-07T07:56:12.515Z,70.57
2017-09-07T07:56:53.093Z,70.38
2017-09-07T07:57:33.698Z,71.44
2017-09-07T07:58:14.270Z,72.49
2017-09-07T07:58:54.905Z,72.78
2017-09-07T07:59:35.575Z,70.99
2017-09-07T08:00:16.161Z,70.51
2017-09-07T08:00:56.745Z,69.84
2017-09-07T08:01:37.436Z,68.5
2017-09-07T08:02:19.060Z,68.4
2017-09-07T08:02:59.628Z,68.59
2017-09-07T08:03:40.224Z,68.98
2017-09-07T08:04:20.784Z,68.5
2017-09-07T08:05:01.356Z,68.98
2017-09-07T08:05:41.927Z,69.36
2017-09-07T08:06:22.503Z,69.93
2017-09-07T08:07:03.074Z,69.81
2017-09-07T08:07:43.709Z,69.33
2017-09-07T08:08:24.285Z,69.71
2017-09-07T08:09:04.872Z,69.62
2017-09-07T08:09:45.447Z,69.52
2017-09-07T08:10:26.055Z,69.52
2017-09-07T08:11:06.631Z,69.71
2017-09-07T08:11:47.201Z,70.64
2017-09-07T08:12:27.777Z,70.92
2017-09-07T08:13:08.328Z,71.5
2017-09-07T08:13:48.903Z,70.92
2017-09-07T08:14:29.474Z,71.02
2017-09-07T08:15:10.055Z,71.78
2017-09-07T08:15:50.622Z,72.27
2017-09-07T08:16:31.184Z,72.55
2017-09-07T08:17:11.764Z,72.07
2017-09-07T08:17:52.345Z,72.07
2017-09-07T08:18:32.932Z,72.27
2017-09-07T08:19:13.498Z,72.07
2017-09-07T08:19:54.069Z,71.88
2017-09-07T08:20:34.636Z,72.07
2017-09-07T08:21:15.220Z,72.13
2017-09-07T08:21:55.792Z,72.61
2017-09-07T08:22:36.376Z,72.74
2017-09-07T08:23:16.960Z,73.13
2017-09-07T08:23:57.545Z,72.84
2017-09-07T08:24:38.126Z,72.74
2017-09-07T08:25:18.687Z,72.94
2017-09-07T08:25:59.260Z,72.64
2017-09-07T08:26:39.831Z,72.84
2017-09-07T08:27:20.409Z,73.22
2017-09-07T08:28:00.983Z,73.22
2017-09-07T08:28:41.574Z,73.51
2017-09-07T08:29:22.139Z,73.22
2017-09-07T08:30:02.723Z,73.32
2017-09-07T08:30:43.297Z,73.03
2017-09-07T08:31:23.866Z,73.26
2017-09-07T08:32:04.456Z,73.55
2017-09-07T08:32:45.040Z,72.68
2017-09-07T08:33:25.600Z,73.2
2017-09-07T08:34:06.169Z,73
2017-09-07T08:34:46.746Z,72.63
2017-09-07T08:35:27.312Z,70.7
2017-09-07T08:36:07.898Z,70.32
2017-09-07T08:36:48.483Z,70.13
2017-09-07T08:37:29.056Z,69.26
2017-09-07T08:38:09.633Z,68.63
2017-09-07T08:38:50.205Z,68.15
2017-09-07T08:39:30.771Z,68.21
2017-09-07T08:40:11.343Z,68.59
2017-09-07T08:40:51.916Z,69.07
2017-09-07T08:41:32.478Z,68.4
2017-09-07T08:42:13.063Z,68.98
2017-09-07T08:42:53.633Z,69.17
2017-09-07T08:43:34.218Z,69.46
2017-09-07T08:44:14.829Z,69.93